Time;durP1;ratioP1;P1;durP2;ratioP2;P2;SDS_P1;SDS_P2;PMS_P1;PMS_P2;Temp;Humidity;BMP_temperature;BMP_pressure;BME280_temperature;BME280_humidity;BME280_pressure;Samples;Min_cycle;Max_cycle;Signal;HPM_P1;HPM_P2
2023/07/16 00:00:08;;;;;;;18.33;10.98;;;;;;;25.01;81.41;95046.25;5002993;28;20241;-80
2023/07/16 00:02:37;;;;;;;19.98;10.43;;;;;;;25.09;81.93;95058.22;5004406;28;20677;-80
2023/07/16 00:05:03;;;;;;;14.50;9.63;;;;;;;25.01;82.09;95057.00;5005980;28;20180;-80
2023/07/16 00:07:29;;;;;;;12.05;8.65;;;;;;;25.05;81.17;95052.66;5003948;28;20247;-80
2023/07/16 00:09:54;;;;;;;11.77;8.65;;;;;;;24.93;81.11;95035.34;4985404;28;20200;-80
2023/07/16 00:12:20;;;;;;;14.55;8.68;;;;;;;25.10;81.28;95057.94;5003375;28;20612;-80
2023/07/16 00:14:45;;;;;;;16.85;9.10;;;;;;;25.05;81.22;95049.94;5001949;28;20188;-80
2023/07/16 00:17:11;;;;;;;17.17;8.40;;;;;;;25.10;81.19;95057.94;5001926;28;20307;-80
2023/07/16 00:19:36;;;;;;;17.15;8.50;;;;;;;24.99;81.02;95040.38;4988150;28;20631;-80
2023/07/16 00:22:02;;;;;;;13.02;8.13;;;;;;;25.06;81.02;95046.16;5004629;28;20176;-80
2023/07/16 00:24:27;;;;;;;16.95;9.18;;;;;;;25.05;80.72;95054.53;5004199;28;20231;-80
2023/07/16 00:26:53;;;;;;;16.70;9.10;;;;;;;24.85;81.29;95036.78;5006686;28;20516;-80
2023/07/16 00:29:21;;;;;;;14.97;8.63;;;;;;;24.80;82.19;95039.59;5001331;28;20436;-80
2023/07/16 00:31:46;;;;;;;10.63;7.55;;;;;;;24.92;81.83;95056.09;5003872;28;20240;-80
2023/07/16 00:34:13;;;;;;;12.25;8.27;;;;;;;24.98;81.12;95054.13;5002636;28;20177;-80
2023/07/16 00:36:38;;;;;;;10.35;7.95;;;;;;;24.93;81.18;95046.13;5004748;28;20169;-80
2023/07/16 00:39:03;;;;;;;13.60;8.00;;;;;;;24.95;81.37;95052.03;5003403;28;20221;-80
2023/07/16 00:41:29;;;;;;;13.65;8.10;;;;;;;24.87;80.99;95042.69;5002740;28;20164;-80
2023/07/16 00:43:54;;;;;;;14.82;8.43;;;;;;;24.71;81.23;95019.81;5004058;28;20177;-80
2023/07/16 00:46:20;;;;;;;18.95;9.07;;;;;;;24.73;81.59;95037.28;5004309;28;20721;-80
2023/07/16 00:48:45;;;;;;;11.60;8.32;;;;;;;24.73;82.12;95049.94;5004740;28;20235;-80
2023/07/16 00:51:12;;;;;;;10.90;8.63;;;;;;;24.71;81.47;95042.16;5001090;28;20200;-80
2023/07/16 00:53:39;;;;;;;14.57;7.82;;;;;;;24.74;81.82;95048.81;5003118;28;20248;-80
2023/07/16 00:56:05;;;;;;;13.30;8.15;;;;;;;24.75;82.06;95051.22;5002153;28;20192;-80
2023/07/16 00:58:30;;;;;;;12.52;8.07;;;;;;;24.64;82.11;95039.06;5002054;28;20175;-79
2023/07/16 01:00:56;;;;;;;14.05;8.02;;;;;;;24.68;82.31;95050.81;5004245;28;20259;-79
2023/07/16 01:03:23;;;;;;;11.93;7.88;;;;;;;24.64;82.04;95044.44;5004803;28;20976;-79
2023/07/16 01:05:55;;;;;;;13.27;7.65;;;;;;;24.54;82.31;95033.81;5001095;28;20192;-79
2023/07/16 01:08:34;;;;;;;11.10;8.20;;;;;;;24.61;82.16;95042.31;5002190;28;20207;-80
2023/07/16 01:11:00;;;;;;;11.82;8.68;;;;;;;24.60;82.32;95042.59;5002563;28;20185;-80
2023/07/16 01:13:27;;;;;;;9.15;7.53;;;;;;;24.65;82.56;95042.53;5004226;28;20180;-79
2023/07/16 01:15:53;;;;;;;11.23;6.65;;;;;;;24.58;79.40;95034.03;5002582;28;20650;-79
2023/07/16 01:18:19;;;;;;;15.10;7.40;;;;;;;24.66;80.15;95044.13;5002794;28;20184;-80
2023/07/16 01:20:44;;;;;;;14.25;7.53;;;;;;;24.73;78.75;95050.75;5001860;28;20169;-79
2023/07/16 01:23:33;;;;;;;8.75;6.07;;;;;;;24.60;78.80;95027.25;5002975;28;20608;-79
2023/07/16 01:26:07;;;;;;;12.95;7.07;;;;;;;24.77;79.03;95040.16;5002900;28;20281;-79
2023/07/16 01:28:36;;;;;;;8.05;4.93;;;;;;;24.83;76.64;95060.53;5002919;28;20226;-79
2023/07/16 01:31:01;;;;;;;8.20;6.55;;;;;;;24.89;78.10;95053.19;5002378;28;20724;-79
2023/07/16 01:33:27;;;;;;;11.73;7.70;;;;;;;24.90;78.30;95049.41;5002121;28;20432;-80
2023/07/16 01:35:54;;;;;;;13.93;7.47;;;;;;;24.79;78.28;95032.59;5002609;28;20192;-80
2023/07/16 01:38:20;;;;;;;16.97;5.40;;;;;;;24.90;76.27;95052.88;5002391;28;20388;-80
2023/07/16 01:40:46;;;;;;;14.55;9.40;;;;;;;24.83;76.92;95036.28;4984749;28;21768;-79
2023/07/16 01:43:12;;;;;;;11.63;7.80;;;;;;;24.94;77.57;95056.59;5001906;28;20185;-80
2023/07/16 01:45:38;;;;;;;10.63;8.02;;;;;;;24.80;78.11;95035.00;5003174;28;20187;-80
2023/07/16 01:48:16;;;;;;;13.73;7.88;;;;;;;24.93;77.68;95054.19;5002415;28;20184;-80
2023/07/16 01:50:42;;;;;;;9.55;5.90;;;;;;;24.79;76.68;95057.66;5003088;28;20506;-80
2023/07/16 01:53:07;;;;;;;13.38;7.10;;;;;;;24.74;78.12;95056.91;5005095;28;20176;-80
2023/07/16 01:55:33;;;;;;;8.57;5.40;;;;;;;24.70;77.03;95055.91;5001910;28;20551;-80
2023/07/16 01:57:58;;;;;;;14.77;7.07;;;;;;;24.71;78.43;95046.75;5004379;28;20211;-80
2023/07/16 02:00:23;;;;;;;11.00;5.72;;;;;;;24.77;78.52;95065.22;5001463;28;20165;-80
2023/07/16 02:02:49;;;;;;;7.13;5.40;;;;;;;24.75;77.10;95053.13;5004217;28;20177;-80
2023/07/16 02:05:15;;;;;;;6.87;4.73;;;;;;;24.81;76.32;95066.22;5000838;28;20451;-80
2023/07/16 02:07:40;;;;;;;8.52;5.22;;;;;;;24.81;76.03;95062.75;5001195;28;20226;-80
2023/07/16 02:10:06;;;;;;;6.78;4.75;;;;;;;24.73;75.30;95049.94;4991598;28;20201;-80
2023/07/16 02:12:31;;;;;;;6.85;4.85;;;;;;;24.75;75.68;95053.94;5000806;28;20673;-80
2023/07/16 02:14:57;;;;;;;7.40;4.47;;;;;;;24.77;75.41;95053.63;5003751;28;20421;-80
2023/07/16 02:17:23;;;;;;;8.52;4.80;;;;;;;24.82;74.70;95064.34;5000897;28;20185;-80
2023/07/16 02:19:48;;;;;;;8.57;5.22;;;;;;;24.66;74.72;95028.75;5003209;28;20312;-80
2023/07/16 02:22:13;;;;;;;7.53;4.60;;;;;;;24.75;74.22;95045.03;5003727;28;20547;-80
2023/07/16 02:24:39;;;;;;;7.40;4.57;;;;;;;24.85;73.82;95058.34;5004549;28;20510;-79
2023/07/16 02:27:05;;;;;;;6.25;3.83;;;;;;;24.71;74.00;95046.75;5001470;28;20172;-79
2023/07/16 02:29:31;;;;;;;6.95;5.18;;;;;;;24.66;74.37;95046.81;4984561;28;20446;-80
2023/07/16 02:31:57;;;;;;;9.25;4.55;;;;;;;24.74;74.61;95070.38;4999605;28;20427;-80
2023/07/16 02:34:22;;;;;;;7.13;4.50;;;;;;;24.63;73.78;95047.41;5002189;28;20429;-79
2023/07/16 02:36:47;;;;;;;7.60;4.13;;;;;;;24.77;74.56;95069.78;5002668;28;20443;-80
2023/07/16 02:39:13;;;;;;;7.27;4.00;;;;;;;24.83;74.11;95065.91;5000897;28;20408;-78
2023/07/16 02:41:38;;;;;;;7.53;4.57;;;;;;;24.75;73.72;95055.81;5001749;28;20422;-79
2023/07/16 02:44:05;;;;;;;8.73;3.97;;;;;;;24.90;73.60;95073.63;5000816;28;20252;-80
2023/07/16 02:46:31;;;;;;;6.25;4.00;;;;;;;24.90;73.41;95069.06;5003467;28;20184;-80
2023/07/16 02:48:56;;;;;;;8.05;4.03;;;;;;;24.86;73.18;95061.84;5002909;28;20217;-79
2023/07/16 02:51:22;;;;;;;10.87;4.50;;;;;;;24.89;73.52;95072.03;5003416;28;20414;-80
2023/07/16 02:53:47;;;;;;;8.37;4.50;;;;;;;24.83;73.24;95068.59;4997783;28;20901;-78
2023/07/16 02:56:13;;;;;;;8.75;3.97;;;;;;;24.81;73.29;95060.03;5001638;28;20599;-78
2023/07/16 02:58:38;;;;;;;4.63;3.90;;;;;;;24.54;73.43;95041.09;4996825;28;20455;-78
2023/07/16 03:01:03;;;;;;;8.00;3.88;;;;;;;24.70;73.81;95067.47;4995053;28;20424;-79
2023/07/16 03:03:29;;;;;;;5.55;3.78;;;;;;;24.78;73.54;95077.59;5003442;28;20173;-79
2023/07/16 03:05:55;;;;;;;7.28;4.43;;;;;;;24.71;73.13;95076.38;4999868;28;20176;-79
2023/07/16 03:08:20;;;;;;;6.83;4.13;;;;;;;24.57;74.05;95057.44;5004727;28;20406;-78
2023/07/16 03:10:45;;;;;;;6.70;3.90;;;;;;;24.70;73.70;95074.75;4999695;28;21182;-79
2023/07/16 03:13:11;;;;;;;8.20;4.18;;;;;;;24.67;73.17;95070.75;4997297;28;20493;-79
2023/07/16 03:15:36;;;;;;;5.83;4.10;;;;;;;24.54;73.58;95076.91;5001893;28;20415;-78
2023/07/16 03:18:03;;;;;;;6.47;3.77;;;;;;;24.51;73.83;95076.69;5001952;28;20896;-78
2023/07/16 03:20:28;;;;;;;4.80;4.13;;;;;;;24.49;73.27;95057.31;5000179;28;20424;-78
2023/07/16 03:22:54;;;;;;;6.07;4.27;;;;;;;24.41;73.99;95062.28;4997379;28;20423;-79
2023/07/16 03:25:19;;;;;;;8.10;6.22;;;;;;;24.58;73.96;95079.78;5002658;28;20180;-79
2023/07/16 03:27:44;;;;;;;9.45;4.38;;;;;;;24.68;73.02;95077.75;4998574;28;20506;-78
2023/07/16 03:30:10;;;;;;;5.55;3.80;;;;;;;24.57;73.37;95087.06;4999827;28;20287;-79
2023/07/16 03:32:35;;;;;;;9.23;4.13;;;;;;;24.56;73.66;95084.69;5002152;28;20188;-78
2023/07/16 03:35:01;;;;;;;6.47;4.45;;;;;;;24.51;73.44;95065.91;4999928;28;20569;-79
2023/07/16 03:37:26;;;;;;;4.53;3.65;;;;;;;24.58;73.16;95071.72;5002606;28;20562;-79
2023/07/16 03:39:52;;;;;;;7.90;4.35;;;;;;;24.75;73.28;95088.94;4999633;28;20181;-80
2023/07/16 03:42:17;;;;;;;6.38;3.50;;;;;;;24.77;73.10;95097.53;5000787;28;20234;-79
2023/07/16 03:44:43;;;;;;;6.50;3.58;;;;;;;24.73;72.89;95080.38;4999432;28;20973;-81
2023/07/16 03:47:08;;;;;;;6.45;4.38;;;;;;;24.90;72.61;95090.59;4999375;28;20642;-82
2023/07/16 03:49:34;;;;;;;10.48;4.05;;;;;;;25.05;72.46;95098.44;4982994;28;20316;-82
2023/07/16 03:51:59;;;;;;;9.38;4.43;;;;;;;25.21;72.75;95106.25;4998418;28;20260;-79
2023/07/16 03:54:24;;;;;;;6.13;4.15;;;;;;;25.22;72.24;95078.22;5004034;28;20670;-79
2023/07/16 03:56:50;;;;;;;8.90;4.07;;;;;;;25.18;71.94;95046.47;5004617;28;20173;-83
2023/07/16 03:59:15;;;;;;;6.35;3.97;;;;;;;25.54;71.08;95100.53;5003289;28;20243;-82
2023/07/16 04:01:41;;;;;;;6.95;4.63;;;;;;;25.62;70.33;95101.75;5006390;28;20180;-81
2023/07/16 04:04:06;;;;;;;7.32;4.13;;;;;;;25.80;71.02;95108.94;5004595;28;20258;-84
2023/07/16 04:06:31;;;;;;;7.93;4.20;;;;;;;25.84;70.75;95095.66;5004661;28;20230;-85
2023/07/16 04:08:57;;;;;;;7.03;4.55;;;;;;;25.96;69.92;95092.44;4986914;28;20761;-85
2023/07/16 04:11:22;;;;;;;8.32;5.20;;;;;;;26.07;68.50;95102.72;5003527;28;20186;-85
2023/07/16 04:13:47;;;;;;;5.53;4.13;;;;;;;26.20;68.99;95095.72;5003736;28;20236;-85
2023/07/16 04:16:13;;;;;;;5.43;3.58;;;;;;;26.43;68.55;95110.09;5004211;28;20202;-85
2023/07/16 04:18:38;;;;;;;6.63;4.10;;;;;;;26.51;67.83;95115.56;4985431;28;20177;-85
2023/07/16 04:21:04;;;;;;;9.68;5.05;;;;;;;26.32;67.66;95065.50;5002988;28;20613;-85
2023/07/16 04:23:29;;;;;;;6.82;3.95;;;;;;;26.65;66.54;95097.41;5003726;28;20207;-85
2023/07/16 04:26:44;;;;;;;15.13;5.53;;;;;;;26.90;67.16;95114.13;5004068;28;20630;-86
2023/07/16 04:29:10;;;;;;;5.60;3.78;;;;;;;26.87;66.07;95099.34;5001746;28;20203;-85
2023/07/16 04:31:35;;;;;;;11.90;5.15;;;;;;;27.04;65.01;95117.59;5004381;28;20170;-84
2023/07/16 04:34:01;;;;;;;9.75;4.47;;;;;;;27.09;67.07;95095.84;5004257;28;20223;-84
2023/07/16 04:36:26;;;;;;;5.85;3.53;;;;;;;27.26;65.19;95112.16;4985193;28;20183;-84
2023/07/16 04:38:51;;;;;;;9.82;4.28;;;;;;;27.49;65.79;95131.88;5002166;28;20256;-84
2023/07/16 04:41:17;;;;;;;6.78;4.10;;;;;;;27.56;64.83;95109.81;4986296;28;20272;-83
2023/07/16 04:43:42;;;;;;;5.97;3.88;;;;;;;27.82;63.45;95120.75;5003263;28;20181;-83
2023/07/16 04:46:08;;;;;;;8.35;4.00;;;;;;;28.06;62.67;95132.75;5003741;28;20658;-83
2023/07/16 04:48:33;;;;;;;4.90;3.70;;;;;;;28.04;61.21;95134.97;5005113;28;20303;-82
2023/07/16 04:50:59;;;;;;;5.95;3.85;;;;;;;28.19;61.48;95127.56;5001186;28;20629;-83
2023/07/16 04:53:24;;;;;;;5.38;3.83;;;;;;;28.33;61.66;95133.66;5003799;28;20188;-83
2023/07/16 04:55:50;;;;;;;8.82;4.28;;;;;;;28.65;61.58;95135.91;5004986;28;20176;-82
2023/07/16 04:58:16;;;;;;;5.53;3.75;;;;;;;28.84;58.97;95139.16;5003104;28;20263;-85
2023/07/16 05:00:41;;;;;;;5.30;4.30;;;;;;;28.73;59.49;95109.94;5004314;28;20176;-84
2023/07/16 05:03:06;;;;;;;9.57;4.30;;;;;;;29.04;59.24;95137.72;4983256;28;20623;-84
2023/07/16 05:05:32;;;;;;;9.18;4.22;;;;;;;29.02;59.30;95098.47;5002466;28;20616;-83
2023/07/16 05:07:58;;;;;;;5.13;3.88;;;;;;;29.58;57.10;95124.53;5003946;28;20179;-83
2023/07/16 05:10:23;;;;;;;8.85;4.20;;;;;;;30.00;56.76;95141.81;5002317;28;20251;-84
2023/07/16 05:12:49;;;;;;;6.40;3.67;;;;;;;30.32;56.65;95143.88;5003683;28;20238;-84
2023/07/16 05:15:15;;;;;;;4.53;3.90;;;;;;;30.60;55.19;95138.78;4985876;28;20177;-79
2023/07/16 05:17:41;;;;;;;6.50;3.88;;;;;;;30.88;53.71;95138.22;5005300;28;20267;-79
2023/07/16 05:20:07;;;;;;;8.90;5.60;;;;;;;31.39;53.54;95142.47;5002785;28;20183;-79
2023/07/16 05:22:33;;;;;;;9.60;4.40;;;;;;;31.50;51.66;95111.72;5002795;28;20181;-80
2023/07/16 05:24:58;;;;;;;11.77;3.80;;;;;;;32.02;52.10;95132.13;5002944;28;20548;-80
2023/07/16 05:27:24;;;;;;;7.00;4.03;;;;;;;32.15;49.45;95126.38;5005181;28;20562;-80
2023/07/16 05:29:49;;;;;;;7.63;3.90;;;;;;;32.49;48.54;95146.94;5003127;28;20275;-81
2023/07/16 05:32:15;;;;;;;6.32;3.67;;;;;;;32.77;49.22;95146.25;5003340;28;20657;-81
2023/07/16 05:34:40;;;;;;;5.70;3.50;;;;;;;32.89;47.91;95155.16;5001089;28;20235;-81
2023/07/16 05:37:06;;;;;;;11.50;4.57;;;;;;;32.95;47.29;95155.75;4983714;28;20644;-80
2023/07/16 05:39:31;;;;;;;6.82;4.05;;;;;;;33.25;47.08;95145.28;4983604;28;20925;-80
2023/07/16 05:41:57;;;;;;;5.15;3.72;;;;;;;33.47;46.22;95142.00;5000978;28;20188;-81
2023/07/16 05:44:22;;;;;;;9.25;4.13;;;;;;;33.84;45.88;95136.34;5002597;28;20714;-80
2023/07/16 05:46:48;;;;;;;6.57;3.67;;;;;;;33.65;45.00;95140.53;4999911;28;20177;-80
2023/07/16 05:49:13;;;;;;;10.70;4.18;;;;;;;33.62;46.00;95168.56;5002185;28;20625;-80
2023/07/16 05:51:38;;;;;;;4.45;3.28;;;;;;;33.05;46.00;95133.41;5000028;28;20185;-80
2023/07/16 05:54:04;;;;;;;6.95;3.70;;;;;;;33.60;46.63;95161.84;5003080;28;20192;-80
2023/07/16 05:56:29;;;;;;;6.20;3.90;;;;;;;32.32;47.38;95144.44;5002003;28;20184;-83
2023/07/16 05:58:55;;;;;;;4.35;3.50;;;;;;;32.75;47.13;95165.66;4999689;28;20177;-81
2023/07/16 06:01:20;;;;;;;4.70;3.85;;;;;;;33.17;47.73;95154.41;5004836;28;20280;-81
2023/07/16 06:03:45;;;;;;;7.30;3.72;;;;;;;33.29;46.02;95149.72;4985410;28;20669;-80
2023/07/16 06:06:11;;;;;;;9.23;3.85;;;;;;;33.16;46.34;95167.25;5004007;28;20172;-79
2023/07/16 06:08:36;;;;;;;8.05;3.90;;;;;;;33.19;46.66;95174.75;4999726;28;20176;-79
2023/07/16 06:11:03;;;;;;;6.35;4.00;;;;;;;33.30;47.79;95158.69;5000868;28;20258;-82
2023/07/16 06:13:29;;;;;;;5.38;3.50;;;;;;;33.42;47.02;95166.03;5001536;28;20161;-81
2023/07/16 06:15:54;;;;;;;9.82;4.55;;;;;;;33.42;48.36;95166.84;4992598;28;20203;-81
2023/07/16 06:18:20;;;;;;;4.85;3.50;;;;;;;33.26;46.38;95168.72;5000979;28;20165;-82
2023/07/16 06:20:46;;;;;;;21.98;5.43;;;;;;;33.07;46.41;95169.34;4985374;28;20575;-82
2023/07/16 06:23:12;;;;;;;4.90;3.70;;;;;;;33.17;47.56;95162.59;4984433;28;20177;-82
2023/07/16 06:25:40;;;;;;;5.82;3.40;;;;;;;33.03;49.21;95148.53;5001912;28;20169;-82
2023/07/16 06:28:06;;;;;;;5.93;3.50;;;;;;;33.05;47.29;95168.06;5001834;28;20192;-83
2023/07/16 06:30:32;;;;;;;12.60;3.75;;;;;;;32.99;47.80;95159.34;4985389;28;20602;-81
2023/07/16 06:32:58;;;;;;;5.47;4.00;;;;;;;32.46;48.90;95160.44;5000359;28;20231;-82
2023/07/16 06:35:23;;;;;;;5.88;3.70;;;;;;;32.32;49.86;95155.34;5003002;28;20681;-82
2023/07/16 06:37:49;;;;;;;5.43;3.92;;;;;;;32.40;48.62;95159.88;5001249;28;20161;-82
2023/07/16 06:40:14;;;;;;;8.05;4.30;;;;;;;32.37;47.67;95152.38;5005478;28;20205;-82
2023/07/16 06:42:40;;;;;;;4.82;3.42;;;;;;;32.16;48.80;95138.09;5001666;28;20235;-82
2023/07/16 06:45:06;;;;;;;6.13;3.90;;;;;;;32.29;48.35;95158.75;4981165;28;20251;-82
2023/07/16 06:47:31;;;;;;;11.27;3.85;;;;;;;31.65;49.80;95156.63;5003063;28;20188;-81
2023/07/16 06:49:56;;;;;;;5.30;3.78;;;;;;;31.62;51.28;95135.50;5001390;28;20220;-82
2023/07/16 06:52:24;;;;;;;6.25;4.00;;;;;;;31.75;50.18;95149.94;5003043;28;20631;-82
2023/07/16 06:54:50;;;;;;;4.70;4.15;;;;;;;31.26;50.40;95130.72;4984633;28;20329;-81
2023/07/16 06:57:15;;;;;;;7.70;4.03;;;;;;;31.29;52.52;95146.41;5001573;28;20247;-82
2023/07/16 06:59:40;;;;;;;9.07;4.93;;;;;;;31.39;52.47;95153.34;4983773;28;20177;-82
2023/07/16 07:02:06;;;;;;;10.07;4.63;;;;;;;31.20;53.70;95132.06;5000069;28;20179;-82
2023/07/16 07:04:31;;;;;;;7.78;4.72;;;;;;;31.27;51.85;95156.03;5000080;28;20172;-80
2023/07/16 07:06:57;;;;;;;6.78;4.13;;;;;;;30.83;52.28;95135.72;5002197;28;20669;-82
2023/07/16 07:09:22;;;;;;;6.28;4.55;;;;;;;30.94;51.62;95132.28;5000090;28;20192;-82
2023/07/16 07:11:48;;;;;;;4.90;4.10;;;;;;;31.24;53.24;95132.19;5003410;28;20256;-82
2023/07/16 07:14:13;;;;;;;5.38;4.38;;;;;;;31.74;52.18;95143.69;4990817;28;20227;-82
2023/07/16 07:16:39;;;;;;;4.35;3.95;;;;;;;32.02;51.80;95134.88;5001532;28;20667;-82
2023/07/16 07:19:05;;;;;;;6.47;4.20;;;;;;;32.26;50.86;95145.78;4998879;28;20179;-82
2023/07/16 07:21:31;;;;;;;8.77;5.35;;;;;;;31.66;52.71;95147.31;5003275;28;20654;-82
2023/07/16 07:23:56;;;;;;;7.18;4.88;;;;;;;31.45;51.90;95152.00;5004287;28;20162;-82
2023/07/16 07:26:22;;;;;;;9.38;6.45;;;;;;;31.64;51.83;95148.78;4984993;28;20179;-82
2023/07/16 07:28:47;;;;;;;11.18;5.25;;;;;;;31.90;50.82;95143.84;5004554;28;20708;-82
2023/07/16 07:31:13;;;;;;;9.98;4.53;;;;;;;31.90;52.25;95146.56;5005838;28;20169;-82
2023/07/16 07:33:38;;;;;;;14.20;5.72;;;;;;;31.98;52.38;95125.78;5003676;28;20173;-82
2023/07/16 07:36:04;;;;;;;6.68;5.13;;;;;;;32.15;51.37;95126.38;5003584;28;21006;-82
2023/07/16 07:38:30;;;;;;;7.80;4.63;;;;;;;32.69;52.67;95145.22;5003718;28;20187;-82
2023/07/16 07:40:55;;;;;;;7.25;4.30;;;;;;;32.89;49.86;95146.97;4998554;28;20181;-81
2023/07/16 07:43:20;;;;;;;9.93;5.15;;;;;;;32.56;49.94;95128.06;4982042;28;20195;-81
2023/07/16 07:45:46;;;;;;;8.50;5.18;;;;;;;32.66;48.34;95140.44;5003612;28;20654;-82
2023/07/16 07:48:11;;;;;;;7.93;4.88;;;;;;;32.95;49.56;95137.41;5003700;28;20620;-84
2023/07/16 07:50:37;;;;;;;7.68;4.40;;;;;;;33.29;49.49;95140.75;5005886;28;20257;-83
2023/07/16 07:53:02;;;;;;;8.35;4.80;;;;;;;33.12;49.23;95139.09;5004582;28;20541;-81
2023/07/16 07:55:28;;;;;;;6.75;4.95;;;;;;;33.20;49.81;95149.06;5004618;28;20173;-85
2023/07/16 07:57:53;;;;;;;6.70;5.22;;;;;;;32.77;47.79;95130.66;5004616;28;20609;-83
2023/07/16 08:00:19;;;;;;;11.05;5.05;;;;;;;32.66;48.91;95121.34;5005958;28;20169;-85
2023/07/16 08:02:44;;;;;;;8.93;5.13;;;;;;;32.85;49.22;95126.22;5002881;28;20634;-81
2023/07/16 08:05:09;;;;;;;7.18;4.68;;;;;;;33.23;48.59;95129.25;5000705;28;20222;-81
2023/07/16 08:07:35;;;;;;;9.80;5.82;;;;;;;33.29;48.00;95130.63;5001721;28;20202;-84
2023/07/16 08:10:00;;;;;;;7.68;5.00;;;;;;;33.27;47.90;95143.81;5005572;28;20791;-82
2023/07/16 08:12:25;;;;;;;7.78;5.05;;;;;;;32.92;46.97;95134.59;5002335;28;20260;-81
2023/07/16 08:14:51;;;;;;;9.38;5.50;;;;;;;32.96;48.76;95139.00;5004319;28;20192;-84
2023/07/16 08:17:16;;;;;;;10.27;5.22;;;;;;;32.98;48.83;95134.00;4994868;28;20187;-83
2023/07/16 08:19:42;;;;;;;10.32;4.65;;;;;;;33.14;47.69;95138.72;5000111;28;20172;-80
2023/07/16 08:22:07;;;;;;;10.50;4.80;;;;;;;33.06;49.37;95129.53;5001022;28;20208;-83
2023/07/16 08:24:32;;;;;;;7.00;4.57;;;;;;;33.20;49.00;95121.75;4988924;28;20184;-83
2023/07/16 08:26:58;;;;;;;15.18;4.65;;;;;;;33.41;47.50;95120.75;5003668;28;20201;-80
2023/07/16 08:29:23;;;;;;;6.72;4.60;;;;;;;33.67;47.25;95130.06;5007022;28;20280;-84
2023/07/16 08:31:48;;;;;;;6.97;4.70;;;;;;;33.34;46.39;95108.50;5002564;28;20165;-83
2023/07/16 08:34:14;;;;;;;5.78;4.45;;;;;;;33.41;46.35;95143.41;5003894;28;20188;-83
2023/07/16 08:36:39;;;;;;;10.85;5.15;;;;;;;33.07;47.69;95114.75;5005179;28;20173;-84
2023/07/16 08:39:05;;;;;;;7.63;4.60;;;;;;;33.37;49.50;95141.72;5004960;28;20161;-83
2023/07/16 08:41:31;;;;;;;8.82;5.13;;;;;;;33.34;48.03;95124.91;4991849;28;20181;-85
2023/07/16 08:43:56;;;;;;;6.18;5.13;;;;;;;33.15;51.39;95126.66;5002225;28;20182;-83
2023/07/16 08:46:22;;;;;;;6.07;4.63;;;;;;;32.99;49.28;95085.66;5001601;28;20177;-84
2023/07/16 08:48:48;;;;;;;8.07;5.15;;;;;;;33.14;50.15;95134.03;5002118;28;20227;-83
2023/07/16 08:51:15;;;;;;;7.95;5.03;;;;;;;32.75;48.62;95116.56;4998515;28;20181;-84
2023/07/16 08:53:40;;;;;;;10.45;5.18;;;;;;;32.43;48.94;95110.13;5001285;28;20173;-83
2023/07/16 08:56:06;;;;;;;9.82;5.68;;;;;;;32.34;48.23;95095.03;5003869;28;20180;-84
2023/07/16 08:58:32;;;;;;;7.63;5.10;;;;;;;32.50;49.63;95096.72;4983301;28;20645;-83
2023/07/16 09:00:59;;;;;;;8.75;4.65;;;;;;;32.82;49.03;95130.41;5004562;28;20177;-84
2023/07/16 09:03:24;;;;;;;8.65;4.95;;;;;;;32.88;49.59;95130.94;5002257;28;20684;-84
2023/07/16 09:05:50;;;;;;;6.53;5.40;;;;;;;32.96;49.34;95106.25;4992033;28;20678;-84
2023/07/16 09:08:15;;;;;;;11.30;5.25;;;;;;;32.84;49.34;95128.13;4984768;28;20247;-84
2023/07/16 09:10:41;;;;;;;7.80;5.55;;;;;;;33.08;50.47;95126.47;5003886;28;20278;-84
2023/07/16 09:13:07;;;;;;;10.35;5.93;;;;;;;33.09;51.84;95117.94;5007202;28;20169;-84
2023/07/16 09:15:34;;;;;;;11.20;5.43;;;;;;;33.07;47.92;95117.47;5004579;28;20200;-84
2023/07/16 09:17:59;;;;;;;7.55;4.88;;;;;;;32.75;48.30;95121.22;5003127;28;20172;-84
2023/07/16 09:20:27;;;;;;;9.48;5.43;;;;;;;32.78;50.20;95096.00;5000875;28;20169;-84
2023/07/16 09:22:56;;;;;;;7.22;5.13;;;;;;;33.01;49.21;95098.97;4996534;28;20563;-84
2023/07/16 09:25:29;;;;;;;10.27;5.53;;;;;;;33.19;48.45;95101.06;5008256;28;20666;-84
2023/07/16 09:27:55;;;;;;;9.73;5.65;;;;;;;33.13;47.36;95110.63;5003003;28;20196;-83
2023/07/16 09:30:20;;;;;;;6.75;5.05;;;;;;;32.78;47.99;95091.31;5004558;28;20674;-84
2023/07/16 09:32:47;;;;;;;10.40;5.95;;;;;;;32.90;51.04;95096.72;5003345;28;20187;-83
2023/07/16 09:35:17;;;;;;;9.05;6.32;;;;;;;33.11;47.85;95114.84;5003986;28;20243;-84
2023/07/16 09:37:43;;;;;;;9.05;5.85;;;;;;;33.03;47.53;95089.31;4985213;28;20165;-84
2023/07/16 09:40:11;;;;;;;12.10;5.22;;;;;;;33.11;50.14;95084.84;5002598;28;20169;-84
2023/07/16 09:42:38;;;;;;;11.55;5.70;;;;;;;33.39;48.27;95120.31;5000405;28;20172;-84
2023/07/16 09:45:06;;;;;;;9.23;5.82;;;;;;;33.16;47.63;95098.22;4998919;28;20769;-84
2023/07/16 09:47:32;;;;;;;10.35;6.18;;;;;;;33.12;50.06;95103.59;5000905;28;20183;-84
2023/07/16 09:49:57;;;;;;;12.23;5.57;;;;;;;33.04;48.37;95088.13;5000457;28;20229;-85
2023/07/16 09:52:26;;;;;;;11.80;6.07;;;;;;;32.72;49.21;95097.34;4998596;28;20172;-84
2023/07/16 09:54:54;;;;;;;14.68;6.22;;;;;;;32.65;51.70;95084.28;5003342;28;20200;-84
2023/07/16 09:57:21;;;;;;;8.65;5.90;;;;;;;32.51;48.27;95095.59;5000273;28;20184;-83
2023/07/16 09:59:48;;;;;;;8.70;6.05;;;;;;;32.28;49.89;95080.03;5000969;28;20545;-82
2023/07/16 10:02:14;;;;;;;9.60;6.28;;;;;;;31.83;51.74;95100.81;5006308;28;20187;-82
2023/07/16 10:04:40;;;;;;;9.55;5.72;;;;;;;31.84;50.82;95094.22;5000965;28;20168;-86
2023/07/16 10:07:05;;;;;;;17.30;6.13;;;;;;;31.94;52.75;95073.91;4993629;28;20162;-87
2023/07/16 10:09:39;;;;;;;7.65;5.90;;;;;;;32.13;56.18;95063.22;4993182;28;20600;-85
2023/07/16 10:12:13;;;;;;;11.13;6.60;;;;;;;32.38;53.72;95082.31;5000909;28;20677;-83
2023/07/16 10:14:43;;;;;;;13.88;7.13;;;;;;;32.61;55.02;95081.44;5003208;28;20207;-84
2023/07/16 10:17:13;;;;;;;13.85;6.78;;;;;;;32.85;52.57;95077.91;5001232;28;20166;-85
2023/07/16 10:20:10;;;;;;;10.93;6.50;;;;;;;33.04;50.22;95084.66;5004052;28;20256;-85
2023/07/16 10:22:46;;;;;;;8.25;5.95;;;;;;;33.07;49.11;95073.81;5001339;28;20700;-86
2023/07/16 10:25:18;;;;;;;14.23;6.93;;;;;;;33.15;50.82;95078.31;5002597;28;20176;-86
2023/07/16 10:27:45;;;;;;;11.35;6.75;;;;;;;32.85;49.75;95044.38;5002642;28;20180;-85
2023/07/16 10:30:10;;;;;;;8.07;7.05;;;;;;;32.46;49.01;95051.38;5000257;28;20193;-85
2023/07/16 10:32:36;;;;;;;10.57;6.43;;;;;;;32.06;49.18;95045.88;4999261;28;20230;-85
2023/07/16 10:35:03;;;;;;;13.13;7.05;;;;;;;32.05;52.37;95055.19;5000187;28;20208;-85
2023/07/16 10:37:29;;;;;;;11.10;6.53;;;;;;;31.81;49.18;95040.44;5003319;28;20244;-85
2023/07/16 10:39:56;;;;;;;9.20;7.00;;;;;;;32.01;51.04;95062.44;4984624;28;20168;-85
2023/07/16 10:42:27;;;;;;;10.60;6.80;;;;;;;32.04;52.25;95050.88;5001811;28;20559;-83
2023/07/16 10:44:55;;;;;;;10.82;8.00;;;;;;;32.26;51.97;95061.28;5002621;28;20169;-86
2023/07/16 10:47:34;;;;;;;9.90;6.40;;;;;;;32.32;51.65;95059.94;5003252;28;20621;-85
2023/07/16 10:50:00;;;;;;;21.02;7.28;;;;;;;32.34;49.39;95071.31;4999944;28;20224;-86
2023/07/16 10:52:26;;;;;;;12.50;7.38;;;;;;;32.24;51.88;95047.25;4992600;28;20205;-86
2023/07/16 10:54:57;;;;;;;12.73;6.35;;;;;;;32.38;52.57;95063.22;5004728;28;20176;-88
2023/07/16 10:57:23;;;;;;;13.80;7.13;;;;;;;32.49;50.26;95059.69;4979090;28;20252;-86
2023/07/16 10:59:50;;;;;;;13.45;6.78;;;;;;;32.42;49.63;95043.13;5002456;28;20185;-86
2023/07/16 11:02:17;;;;;;;11.77;6.80;;;;;;;32.52;49.89;95058.97;5002058;28;20219;-86
2023/07/16 11:04:45;;;;;;;9.35;6.68;;;;;;;32.55;49.06;95046.59;5006948;28;20165;-86
2023/07/16 11:07:12;;;;;;;11.00;7.18;;;;;;;32.55;48.70;95041.94;5005141;28;20257;-84
2023/07/16 11:09:48;;;;;;;13.00;6.30;;;;;;;32.61;47.61;95048.72;5003868;28;20255;-83
2023/07/16 11:12:16;;;;;;;12.02;7.35;;;;;;;32.66;48.72;95049.63;4985897;28;20219;-84
2023/07/16 11:14:44;;;;;;;12.63;7.00;;;;;;;32.63;51.15;95036.66;5003244;28;20177;-83
2023/07/16 11:17:11;;;;;;;15.10;7.05;;;;;;;32.77;47.85;95043.38;4989031;28;20175;-86
2023/07/16 11:19:37;;;;;;;10.23;7.05;;;;;;;32.74;49.88;95035.06;4985161;28;20214;-85
2023/07/16 11:22:04;;;;;;;10.40;6.15;;;;;;;32.65;48.34;95021.56;5005994;28;20187;-85
2023/07/16 11:24:56;;;;;;;11.82;7.03;;;;;;;32.89;47.20;95043.31;5003793;28;20314;-85